sensor_id;sensor_type;location;lat;lon;timestamp;P1;durP1;ratioP1;P2;durP2;ratioP2
10471;SDS011;5283;48.876;8.962;2022-12-16T00:01:50;41.43;;;25.80;;
10471;SDS011;5283;48.876;8.962;2022-12-16T00:04:17;39.70;;;24.97;;
10471;SDS011;5283;48.876;8.962;2022-12-16T00:06:43;42.57;;;25.50;;
10471;SDS011;5283;48.876;8.962;2022-12-16T00:09:10;39.60;;;25.43;;
10471;SDS011;5283;48.876;8.962;2022-12-16T00:11:37;36.93;;;24.13;;
10471;SDS011;5283;48.876;8.962;2022-12-16T00:14:04;37.17;;;24.27;;
10471;SDS011;5283;48.876;8.962;2022-12-16T00:16:30;39.33;;;26.10;;
10471;SDS011;5283;48.876;8.962;2022-12-16T00:18:57;39.37;;;23.37;;
10471;SDS011;5283;48.876;8.962;2022-12-16T00:21:24;38.87;;;23.83;;
10471;SDS011;5283;48.876;8.962;2022-12-16T00:23:55;34.03;;;22.97;;
10471;SDS011;5283;48.876;8.962;2022-12-16T00:26:22;40.17;;;24.70;;
10471;SDS011;5283;48.876;8.962;2022-12-16T00:28:49;33.73;;;22.47;;
10471;SDS011;5283;48.876;8.962;2022-12-16T00:31:16;39.27;;;22.90;;
10471;SDS011;5283;48.876;8.962;2022-12-16T00:33:42;36.60;;;22.57;;
10471;SDS011;5283;48.876;8.962;2022-12-16T00:36:09;39.30;;;22.23;;
10471;SDS011;5283;48.876;8.962;2022-12-16T00:38:36;41.80;;;24.07;;
10471;SDS011;5283;48.876;8.962;2022-12-16T00:41:03;37.03;;;22.97;;
10471;SDS011;5283;48.876;8.962;2022-12-16T00:43:30;39.10;;;23.80;;
10471;SDS011;5283;48.876;8.962;2022-12-16T00:45:57;35.63;;;22.67;;
10471;SDS011;5283;48.876;8.962;2022-12-16T00:48:23;35.60;;;22.80;;
10471;SDS011;5283;48.876;8.962;2022-12-16T00:50:51;36.63;;;23.37;;
10471;SDS011;5283;48.876;8.962;2022-12-16T00:53:19;34.73;;;21.83;;
10471;SDS011;5283;48.876;8.962;2022-12-16T00:55:46;34.90;;;21.67;;
10471;SDS011;5283;48.876;8.962;2022-12-16T00:58:13;34.70;;;21.67;;
10471;SDS011;5283;48.876;8.962;2022-12-16T01:00:40;35.50;;;22.20;;
10471;SDS011;5283;48.876;8.962;2022-12-16T01:03:07;33.47;;;22.10;;
10471;SDS011;5283;48.876;8.962;2022-12-16T01:05:36;34.80;;;21.37;;
10471;SDS011;5283;48.876;8.962;2022-12-16T01:08:03;33.00;;;22.33;;
10471;SDS011;5283;48.876;8.962;2022-12-16T01:10:31;34.57;;;22.00;;
10471;SDS011;5283;48.876;8.962;2022-12-16T01:12:57;34.47;;;22.07;;
10471;SDS011;5283;48.876;8.962;2022-12-16T01:15:24;35.73;;;22.27;;
10471;SDS011;5283;48.876;8.962;2022-12-16T01:17:51;34.23;;;21.13;;
10471;SDS011;5283;48.876;8.962;2022-12-16T01:20:18;36.37;;;21.83;;
10471;SDS011;5283;48.876;8.962;2022-12-16T01:22:45;35.00;;;22.80;;
10471;SDS011;5283;48.876;8.962;2022-12-16T01:25:11;37.07;;;22.47;;
10471;SDS011;5283;48.876;8.962;2022-12-16T01:27:38;40.37;;;23.17;;
10471;SDS011;5283;48.876;8.962;2022-12-16T01:30:06;36.60;;;23.07;;
10471;SDS011;5283;48.876;8.962;2022-12-16T01:32:34;39.40;;;24.10;;
10471;SDS011;5283;48.876;8.962;2022-12-16T01:35:01;35.97;;;22.90;;
10471;SDS011;5283;48.876;8.962;2022-12-16T01:37:28;38.33;;;22.87;;
10471;SDS011;5283;48.876;8.962;2022-12-16T01:39:55;39.47;;;23.63;;
10471;SDS011;5283;48.876;8.962;2022-12-16T01:42:21;37.57;;;22.77;;
10471;SDS011;5283;48.876;8.962;2022-12-16T01:44:49;34.37;;;21.93;;
10471;SDS011;5283;48.876;8.962;2022-12-16T01:47:24;36.00;;;22.70;;
10471;SDS011;5283;48.876;8.962;2022-12-16T01:49:54;35.37;;;22.33;;
10471;SDS011;5283;48.876;8.962;2022-12-16T01:52:31;36.17;;;21.80;;
10471;SDS011;5283;48.876;8.962;2022-12-16T01:55:47;34.70;;;22.43;;
10471;SDS011;5283;48.876;8.962;2022-12-16T01:57:55;36.17;;;22.57;;
10471;SDS011;5283;48.876;8.962;2022-12-16T02:00:42;34.83;;;21.77;;
10471;SDS011;5283;48.876;8.962;2022-12-16T02:03:09;36.03;;;22.20;;
10471;SDS011;5283;48.876;8.962;2022-12-16T02:05:37;38.20;;;23.97;;
10471;SDS011;5283;48.876;8.962;2022-12-16T02:08:13;41.03;;;24.10;;
10471;SDS011;5283;48.876;8.962;2022-12-16T02:15:51;39.40;;;24.07;;
10471;SDS011;5283;48.876;8.962;2022-12-16T02:21:30;38.03;;;23.57;;
10471;SDS011;5283;48.876;8.962;2022-12-16T02:35:54;32.60;;;19.60;;
10471;SDS011;5283;48.876;8.962;2022-12-16T02:38:26;36.47;;;22.03;;
10471;SDS011;5283;48.876;8.962;2022-12-16T02:41:04;36.20;;;22.03;;
10471;SDS011;5283;48.876;8.962;2022-12-16T02:46:16;34.50;;;20.67;;
10471;SDS011;5283;48.876;8.962;2022-12-16T02:48:44;32.37;;;19.60;;
10471;SDS011;5283;48.876;8.962;2022-12-16T02:51:11;31.07;;;19.43;;
10471;SDS011;5283;48.876;8.962;2022-12-16T02:53:38;31.60;;;18.83;;
10471;SDS011;5283;48.876;8.962;2022-12-16T02:56:13;28.13;;;18.27;;
10471;SDS011;5283;48.876;8.962;2022-12-16T03:01:34;29.83;;;18.23;;
10471;SDS011;5283;48.876;8.962;2022-12-16T03:04:12;28.23;;;18.90;;
10471;SDS011;5283;48.876;8.962;2022-12-16T03:06:45;31.27;;;19.23;;
10471;SDS011;5283;48.876;8.962;2022-12-16T03:09:16;30.37;;;20.07;;
10471;SDS011;5283;48.876;8.962;2022-12-16T03:11:46;29.47;;;19.67;;
10471;SDS011;5283;48.876;8.962;2022-12-16T03:14:17;30.67;;;19.43;;
10471;SDS011;5283;48.876;8.962;2022-12-16T03:16:45;30.27;;;18.93;;
10471;SDS011;5283;48.876;8.962;2022-12-16T03:19:14;29.33;;;18.07;;
10471;SDS011;5283;48.876;8.962;2022-12-16T03:21:42;28.13;;;18.53;;
10471;SDS011;5283;48.876;8.962;2022-12-16T03:24:17;31.47;;;18.87;;
10471;SDS011;5283;48.876;8.962;2022-12-16T03:29:46;28.60;;;18.50;;
10471;SDS011;5283;48.876;8.962;2022-12-16T03:32:33;28.50;;;18.47;;
10471;SDS011;5283;48.876;8.962;2022-12-16T03:35:20;30.50;;;20.07;;
10471;SDS011;5283;48.876;8.962;2022-12-16T03:37:54;33.67;;;21.57;;
10471;SDS011;5283;48.876;8.962;2022-12-16T03:40:23;31.33;;;21.27;;
10471;SDS011;5283;48.876;8.962;2022-12-16T03:42:52;29.83;;;19.17;;
10471;SDS011;5283;48.876;8.962;2022-12-16T03:45:22;28.17;;;17.97;;
10471;SDS011;5283;48.876;8.962;2022-12-16T03:47:51;29.47;;;20.30;;
10471;SDS011;5283;48.876;8.962;2022-12-16T03:50:26;30.13;;;20.30;;
10471;SDS011;5283;48.876;8.962;2022-12-16T03:52:56;31.93;;;19.93;;
10471;SDS011;5283;48.876;8.962;2022-12-16T03:55:23;32.90;;;20.70;;
10471;SDS011;5283;48.876;8.962;2022-12-16T03:57:50;31.20;;;20.13;;
10471;SDS011;5283;48.876;8.962;2022-12-16T04:00:17;29.33;;;18.57;;
10471;SDS011;5283;48.876;8.962;2022-12-16T04:02:44;30.30;;;19.27;;
10471;SDS011;5283;48.876;8.962;2022-12-16T04:05:10;31.67;;;19.50;;
10471;SDS011;5283;48.876;8.962;2022-12-16T04:07:37;31.53;;;20.60;;
10471;SDS011;5283;48.876;8.962;2022-12-16T04:10:04;31.47;;;21.03;;
10471;SDS011;5283;48.876;8.962;2022-12-16T04:12:32;29.50;;;20.10;;
10471;SDS011;5283;48.876;8.962;2022-12-16T04:15:17;27.07;;;19.40;;
10471;SDS011;5283;48.876;8.962;2022-12-16T04:18:03;27.73;;;19.23;;
10471;SDS011;5283;48.876;8.962;2022-12-16T04:20:50;25.00;;;18.47;;
10471;SDS011;5283;48.876;8.962;2022-12-16T04:23:42;25.27;;;16.87;;
10471;SDS011;5283;48.876;8.962;2022-12-16T04:26:32;24.50;;;16.33;;
10471;SDS011;5283;48.876;8.962;2022-12-16T04:29:19;23.77;;;15.60;;
10471;SDS011;5283;48.876;8.962;2022-12-16T04:31:45;24.40;;;16.23;;
10471;SDS011;5283;48.876;8.962;2022-12-16T04:34:12;24.07;;;16.43;;
10471;SDS011;5283;48.876;8.962;2022-12-16T04:36:55;24.27;;;15.27;;
10471;SDS011;5283;48.876;8.962;2022-12-16T04:39:45;25.23;;;15.30;;
10471;SDS011;5283;48.876;8.962;2022-12-16T04:42:31;25.33;;;16.17;;
10471;SDS011;5283;48.876;8.962;2022-12-16T04:45:16;24.70;;;16.50;;
10471;SDS011;5283;48.876;8.962;2022-12-16T04:48:02;27.23;;;18.80;;
10471;SDS011;5283;48.876;8.962;2022-12-16T04:50:47;27.90;;;18.30;;
10471;SDS011;5283;48.876;8.962;2022-12-16T04:53:32;27.13;;;18.17;;
10471;SDS011;5283;48.876;8.962;2022-12-16T04:56:18;24.40;;;16.67;;
10471;SDS011;5283;48.876;8.962;2022-12-16T04:59:03;24.60;;;16.47;;
10471;SDS011;5283;48.876;8.962;2022-12-16T05:01:49;25.30;;;17.67;;
10471;SDS011;5283;48.876;8.962;2022-12-16T05:04:51;26.03;;;17.93;;
10471;SDS011;5283;48.876;8.962;2022-12-16T05:07:36;26.40;;;17.30;;
10471;SDS011;5283;48.876;8.962;2022-12-16T05:10:26;23.70;;;17.33;;
10471;SDS011;5283;48.876;8.962;2022-12-16T05:13:12;22.83;;;16.33;;
10471;SDS011;5283;48.876;8.962;2022-12-16T05:15:57;23.07;;;15.63;;
10471;SDS011;5283;48.876;8.962;2022-12-16T05:18:43;23.60;;;15.17;;
10471;SDS011;5283;48.876;8.962;2022-12-16T05:21:28;22.47;;;15.30;;
10471;SDS011;5283;48.876;8.962;2022-12-16T05:24:14;22.93;;;14.93;;
10471;SDS011;5283;48.876;8.962;2022-12-16T05:26:59;22.67;;;15.80;;
10471;SDS011;5283;48.876;8.962;2022-12-16T05:29:45;23.17;;;16.23;;
10471;SDS011;5283;48.876;8.962;2022-12-16T05:32:30;22.77;;;15.17;;
10471;SDS011;5283;48.876;8.962;2022-12-16T05:35:16;22.10;;;15.03;;
10471;SDS011;5283;48.876;8.962;2022-12-16T05:38:01;26.30;;;17.33;;
10471;SDS011;5283;48.876;8.962;2022-12-16T05:40:46;23.10;;;15.27;;
10471;SDS011;5283;48.876;8.962;2022-12-16T05:43:32;25.23;;;15.73;;
10471;SDS011;5283;48.876;8.962;2022-12-16T05:46:31;20.97;;;15.30;;
10471;SDS011;5283;48.876;8.962;2022-12-16T05:49:16;22.50;;;15.97;;
10471;SDS011;5283;48.876;8.962;2022-12-16T05:52:01;23.30;;;16.00;;
10471;SDS011;5283;48.876;8.962;2022-12-16T05:54:47;26.37;;;18.03;;
10471;SDS011;5283;48.876;8.962;2022-12-16T05:57:32;26.70;;;17.97;;
10471;SDS011;5283;48.876;8.962;2022-12-16T06:00:18;23.63;;;16.97;;
10471;SDS011;5283;48.876;8.962;2022-12-16T06:03:03;22.40;;;16.57;;
10471;SDS011;5283;48.876;8.962;2022-12-16T06:05:49;26.07;;;17.17;;
10471;SDS011;5283;48.876;8.962;2022-12-16T06:08:34;26.87;;;17.63;;
10471;SDS011;5283;48.876;8.962;2022-12-16T06:11:19;24.17;;;16.87;;
10471;SDS011;5283;48.876;8.962;2022-12-16T06:14:05;25.47;;;17.27;;
10471;SDS011;5283;48.876;8.962;2022-12-16T06:16:50;24.80;;;16.87;;
10471;SDS011;5283;48.876;8.962;2022-12-16T06:19:36;26.67;;;16.93;;
10471;SDS011;5283;48.876;8.962;2022-12-16T06:22:21;25.40;;;17.47;;
10471;SDS011;5283;48.876;8.962;2022-12-16T06:25:07;27.47;;;18.17;;
10471;SDS011;5283;48.876;8.962;2022-12-16T06:27:52;26.37;;;17.67;;
10471;SDS011;5283;48.876;8.962;2022-12-16T06:30:38;25.17;;;16.90;;
10471;SDS011;5283;48.876;8.962;2022-12-16T06:33:23;24.87;;;17.63;;
10471;SDS011;5283;48.876;8.962;2022-12-16T06:36:09;26.70;;;17.20;;
10471;SDS011;5283;48.876;8.962;2022-12-16T06:38:54;27.03;;;18.17;;
10471;SDS011;5283;48.876;8.962;2022-12-16T06:41:40;25.90;;;17.83;;
10471;SDS011;5283;48.876;8.962;2022-12-16T06:44:25;32.13;;;18.30;;
10471;SDS011;5283;48.876;8.962;2022-12-16T06:47:10;25.50;;;17.53;;
10471;SDS011;5283;48.876;8.962;2022-12-16T06:49:56;27.97;;;17.30;;
10471;SDS011;5283;48.876;8.962;2022-12-16T06:52:41;28.60;;;18.30;;
10471;SDS011;5283;48.876;8.962;2022-12-16T06:55:27;28.37;;;18.93;;
10471;SDS011;5283;48.876;8.962;2022-12-16T06:58:13;29.67;;;18.40;;
10471;SDS011;5283;48.876;8.962;2022-12-16T07:00:59;26.30;;;16.87;;
10471;SDS011;5283;48.876;8.962;2022-12-16T07:03:44;23.57;;;17.17;;
10471;SDS011;5283;48.876;8.962;2022-12-16T07:06:30;26.33;;;17.43;;
10471;SDS011;5283;48.876;8.962;2022-12-16T07:09:16;28.33;;;17.70;;
10471;SDS011;5283;48.876;8.962;2022-12-16T07:12:01;23.40;;;15.53;;
10471;SDS011;5283;48.876;8.962;2022-12-16T07:14:47;23.43;;;15.70;;
10471;SDS011;5283;48.876;8.962;2022-12-16T07:17:32;25.50;;;15.80;;
10471;SDS011;5283;48.876;8.962;2022-12-16T07:20:17;25.60;;;15.97;;
10471;SDS011;5283;48.876;8.962;2022-12-16T07:23:03;21.47;;;14.83;;
10471;SDS011;5283;48.876;8.962;2022-12-16T07:25:48;23.90;;;15.43;;
10471;SDS011;5283;48.876;8.962;2022-12-16T07:28:34;24.30;;;15.37;;
10471;SDS011;5283;48.876;8.962;2022-12-16T07:31:19;21.67;;;14.97;;
10471;SDS011;5283;48.876;8.962;2022-12-16T07:34:05;24.13;;;15.23;;
10471;SDS011;5283;48.876;8.962;2022-12-16T07:36:50;20.60;;;14.23;;
10471;SDS011;5283;48.876;8.962;2022-12-16T07:39:36;19.90;;;13.57;;
10471;SDS011;5283;48.876;8.962;2022-12-16T07:42:21;24.57;;;14.13;;
10471;SDS011;5283;48.876;8.962;2022-12-16T07:45:07;21.80;;;14.67;;
10471;SDS011;5283;48.876;8.962;2022-12-16T07:47:54;23.30;;;14.70;;
10471;SDS011;5283;48.876;8.962;2022-12-16T07:50:39;27.83;;;15.83;;
10471;SDS011;5283;48.876;8.962;2022-12-16T07:53:25;21.73;;;13.53;;
10471;SDS011;5283;48.876;8.962;2022-12-16T07:56:10;22.17;;;14.57;;
10471;SDS011;5283;48.876;8.962;2022-12-16T07:58:56;20.23;;;13.73;;
10471;SDS011;5283;48.876;8.962;2022-12-16T08:01:41;19.17;;;12.53;;
10471;SDS011;5283;48.876;8.962;2022-12-16T08:04:27;22.27;;;13.63;;
10471;SDS011;5283;48.876;8.962;2022-12-16T08:07:12;18.37;;;12.63;;
10471;SDS011;5283;48.876;8.962;2022-12-16T08:09:58;18.77;;;11.63;;
10471;SDS011;5283;48.876;8.962;2022-12-16T08:12:43;17.43;;;12.83;;
10471;SDS011;5283;48.876;8.962;2022-12-16T08:15:29;19.17;;;12.20;;
10471;SDS011;5283;48.876;8.962;2022-12-16T08:18:14;19.60;;;12.33;;
10471;SDS011;5283;48.876;8.962;2022-12-16T08:21:04;18.33;;;12.03;;
10471;SDS011;5283;48.876;8.962;2022-12-16T08:23:50;16.87;;;12.00;;
10471;SDS011;5283;48.876;8.962;2022-12-16T08:26:35;19.73;;;11.60;;
10471;SDS011;5283;48.876;8.962;2022-12-16T08:29:21;20.03;;;12.27;;
10471;SDS011;5283;48.876;8.962;2022-12-16T08:32:10;14.90;;;10.70;;
10471;SDS011;5283;48.876;8.962;2022-12-16T08:34:56;16.27;;;12.00;;
10471;SDS011;5283;48.876;8.962;2022-12-16T08:37:41;15.37;;;10.97;;
10471;SDS011;5283;48.876;8.962;2022-12-16T08:40:27;21.37;;;13.07;;
10471;SDS011;5283;48.876;8.962;2022-12-16T08:43:12;18.27;;;12.30;;
10471;SDS011;5283;48.876;8.962;2022-12-16T08:45:58;19.57;;;12.40;;
10471;SDS011;5283;48.876;8.962;2022-12-16T08:48:43;17.67;;;12.23;;
10471;SDS011;5283;48.876;8.962;2022-12-16T08:51:29;18.50;;;13.60;;
10471;SDS011;5283;48.876;8.962;2022-12-16T08:54:14;18.73;;;12.77;;
10471;SDS011;5283;48.876;8.962;2022-12-16T08:56:59;19.67;;;13.43;;
10471;SDS011;5283;48.876;8.962;2022-12-16T08:59:45;20.30;;;13.67;;
10471;SDS011;5283;48.876;8.962;2022-12-16T09:02:30;18.50;;;12.13;;
10471;SDS011;5283;48.876;8.962;2022-12-16T09:05:16;17.57;;;12.23;;
10471;SDS011;5283;48.876;8.962;2022-12-16T09:08:02;19.60;;;12.73;;
10471;SDS011;5283;48.876;8.962;2022-12-16T09:10:48;18.30;;;11.93;;
10471;SDS011;5283;48.876;8.962;2022-12-16T09:13:33;17.77;;;12.77;;
10471;SDS011;5283;48.876;8.962;2022-12-16T09:16:18;17.23;;;11.47;;
10471;SDS011;5283;48.876;8.962;2022-12-16T09:19:04;16.13;;;11.70;;
10471;SDS011;5283;48.876;8.962;2022-12-16T09:21:49;16.87;;;11.53;;
10471;SDS011;5283;48.876;8.962;2022-12-16T09:24:35;18.33;;;11.70;;
10471;SDS011;5283;48.876;8.962;2022-12-16T09:27:20;15.57;;;11.03;;
10471;SDS011;5283;48.876;8.962;2022-12-16T09:30:06;15.93;;;10.83;;
10471;SDS011;5283;48.876;8.962;2022-12-16T09:32:52;18.20;;;10.90;;
10471;SDS011;5283;48.876;8.962;2022-12-16T09:35:37;16.37;;;10.30;;
10471;SDS011;5283;48.876;8.962;2022-12-16T09:38:23;19.20;;;10.43;;
10471;SDS011;5283;48.876;8.962;2022-12-16T09:41:18;16.77;;;10.60;;
10471;SDS011;5283;48.876;8.962;2022-12-16T09:44:26;16.17;;;10.87;;
10471;SDS011;5283;48.876;8.962;2022-12-16T09:50:25;16.07;;;10.13;;
10471;SDS011;5283;48.876;8.962;2022-12-16T09:53:14;13.90;;;9.50;;
10471;SDS011;5283;48.876;8.962;2022-12-16T09:56:04;14.83;;;9.73;;
10471;SDS011;5283;48.876;8.962;2022-12-16T09:58:57;14.13;;;10.00;;
10471;SDS011;5283;48.876;8.962;2022-12-16T10:01:45;14.07;;;9.80;;
10471;SDS011;5283;48.876;8.962;2022-12-16T10:04:31;13.23;;;9.90;;
10471;SDS011;5283;48.876;8.962;2022-12-16T10:07:17;15.47;;;10.43;;
10471;SDS011;5283;48.876;8.962;2022-12-16T10:13:17;17.67;;;11.10;;
10471;SDS011;5283;48.876;8.962;2022-12-16T10:16:31;15.20;;;10.47;;
10471;SDS011;5283;48.876;8.962;2022-12-16T10:22:32;14.37;;;10.10;;
10471;SDS011;5283;48.876;8.962;2022-12-16T10:25:21;13.70;;;9.73;;
10471;SDS011;5283;48.876;8.962;2022-12-16T10:28:23;14.80;;;10.30;;
10471;SDS011;5283;48.876;8.962;2022-12-16T10:31:16;16.03;;;10.00;;
10471;SDS011;5283;48.876;8.962;2022-12-16T10:34:04;15.63;;;10.23;;
10471;SDS011;5283;48.876;8.962;2022-12-16T10:36:57;13.57;;;9.93;;
10471;SDS011;5283;48.876;8.962;2022-12-16T10:39:50;17.70;;;10.27;;
10471;SDS011;5283;48.876;8.962;2022-12-16T10:43:00;16.93;;;9.73;;
10471;SDS011;5283;48.876;8.962;2022-12-16T10:45:49;14.90;;;8.57;;
10471;SDS011;5283;48.876;8.962;2022-12-16T10:48:37;13.37;;;8.47;;
10471;SDS011;5283;48.876;8.962;2022-12-16T10:51:23;12.23;;;8.27;;
10471;SDS011;5283;48.876;8.962;2022-12-16T10:57:12;12.30;;;7.90;;
10471;SDS011;5283;48.876;8.962;2022-12-16T11:00:11;12.03;;;8.10;;
10471;SDS011;5283;48.876;8.962;2022-12-16T11:03:22;12.43;;;8.27;;
10471;SDS011;5283;48.876;8.962;2022-12-16T11:06:09;11.77;;;8.43;;
10471;SDS011;5283;48.876;8.962;2022-12-16T11:15:20;10.27;;;7.17;;
10471;SDS011;5283;48.876;8.962;2022-12-16T11:18:13;12.47;;;7.83;;
10471;SDS011;5283;48.876;8.962;2022-12-16T11:21:19;10.97;;;7.97;;
10471;SDS011;5283;48.876;8.962;2022-12-16T11:26:54;12.57;;;9.00;;
10471;SDS011;5283;48.876;8.962;2022-12-16T11:29:57;13.53;;;8.70;;
10471;SDS011;5283;48.876;8.962;2022-12-16T11:32:45;11.83;;;8.73;;
10471;SDS011;5283;48.876;8.962;2022-12-16T11:35:40;14.63;;;9.43;;
10471;SDS011;5283;48.876;8.962;2022-12-16T11:38:35;12.70;;;9.10;;
10471;SDS011;5283;48.876;8.962;2022-12-16T11:41:26;12.67;;;8.90;;
10471;SDS011;5283;48.876;8.962;2022-12-16T11:44:17;12.03;;;8.50;;
10471;SDS011;5283;48.876;8.962;2022-12-16T11:47:12;13.77;;;8.93;;
10471;SDS011;5283;48.876;8.962;2022-12-16T11:50:07;10.50;;;8.37;;
10471;SDS011;5283;48.876;8.962;2022-12-16T11:52:56;11.57;;;8.83;;
10471;SDS011;5283;48.876;8.962;2022-12-16T11:55:46;11.43;;;8.03;;
10471;SDS011;5283;48.876;8.962;2022-12-16T11:58:44;13.93;;;8.90;;
10471;SDS011;5283;48.876;8.962;2022-12-16T12:04:34;13.37;;;8.93;;
10471;SDS011;5283;48.876;8.962;2022-12-16T12:07:22;12.20;;;8.83;;
10471;SDS011;5283;48.876;8.962;2022-12-16T12:13:14;11.93;;;8.30;;
10471;SDS011;5283;48.876;8.962;2022-12-16T12:19:13;10.30;;;8.00;;
10471;SDS011;5283;48.876;8.962;2022-12-16T12:22:10;11.50;;;8.20;;
10471;SDS011;5283;48.876;8.962;2022-12-16T12:37:36;11.47;;;8.20;;
10471;SDS011;5283;48.876;8.962;2022-12-16T12:47:14;12.40;;;8.20;;
10471;SDS011;5283;48.876;8.962;2022-12-16T12:50:07;12.77;;;8.67;;
10471;SDS011;5283;48.876;8.962;2022-12-16T12:56:30;12.97;;;8.53;;
10471;SDS011;5283;48.876;8.962;2022-12-16T12:59:28;12.10;;;8.10;;
10471;SDS011;5283;48.876;8.962;2022-12-16T13:02:22;10.03;;;6.90;;
10471;SDS011;5283;48.876;8.962;2022-12-16T13:05:14;9.73;;;7.30;;
10471;SDS011;5283;48.876;8.962;2022-12-16T13:11:22;9.67;;;7.33;;
10471;SDS011;5283;48.876;8.962;2022-12-16T13:20:01;9.10;;;6.80;;
10471;SDS011;5283;48.876;8.962;2022-12-16T13:22:49;11.03;;;7.13;;
10471;SDS011;5283;48.876;8.962;2022-12-16T13:25:43;10.63;;;7.47;;
10471;SDS011;5283;48.876;8.962;2022-12-16T13:28:36;10.50;;;6.83;;
10471;SDS011;5283;48.876;8.962;2022-12-16T13:31:23;10.20;;;7.73;;
10471;SDS011;5283;48.876;8.962;2022-12-16T13:36:58;11.67;;;7.00;;
10471;SDS011;5283;48.876;8.962;2022-12-16T13:40:02;10.33;;;7.03;;
10471;SDS011;5283;48.876;8.962;2022-12-16T13:43:00;10.03;;;7.23;;
10471;SDS011;5283;48.876;8.962;2022-12-16T13:48:49;13.03;;;7.80;;
10471;SDS011;5283;48.876;8.962;2022-12-16T13:54:27;9.83;;;7.47;;
10471;SDS011;5283;48.876;8.962;2022-12-16T13:57:16;9.43;;;7.30;;
10471;SDS011;5283;48.876;8.962;2022-12-16T14:00:05;9.73;;;7.53;;
10471;SDS011;5283;48.876;8.962;2022-12-16T14:03:08;11.73;;;7.53;;
10471;SDS011;5283;48.876;8.962;2022-12-16T14:06:09;10.50;;;7.57;;
10471;SDS011;5283;48.876;8.962;2022-12-16T14:09:02;11.33;;;7.60;;
10471;SDS011;5283;48.876;8.962;2022-12-16T14:11:59;10.27;;;7.27;;
10471;SDS011;5283;48.876;8.962;2022-12-16T14:14:53;10.97;;;7.80;;
10471;SDS011;5283;48.876;8.962;2022-12-16T14:18:03;12.50;;;8.47;;
10471;SDS011;5283;48.876;8.962;2022-12-16T14:20:59;12.23;;;8.57;;
10471;SDS011;5283;48.876;8.962;2022-12-16T14:23:54;11.87;;;8.20;;
10471;SDS011;5283;48.876;8.962;2022-12-16T14:26:46;12.63;;;8.50;;
10471;SDS011;5283;48.876;8.962;2022-12-16T14:29:34;11.53;;;8.53;;
10471;SDS011;5283;48.876;8.962;2022-12-16T14:35:14;11.77;;;8.80;;
10471;SDS011;5283;48.876;8.962;2022-12-16T14:41:16;12.07;;;8.40;;
10471;SDS011;5283;48.876;8.962;2022-12-16T14:44:05;14.07;;;8.33;;
10471;SDS011;5283;48.876;8.962;2022-12-16T14:47:01;11.70;;;8.73;;
10471;SDS011;5283;48.876;8.962;2022-12-16T14:49:50;12.10;;;8.20;;
10471;SDS011;5283;48.876;8.962;2022-12-16T14:52:37;10.63;;;7.97;;
10471;SDS011;5283;48.876;8.962;2022-12-16T14:55:30;11.53;;;8.60;;
10471;SDS011;5283;48.876;8.962;2022-12-16T14:58:18;11.53;;;8.53;;
10471;SDS011;5283;48.876;8.962;2022-12-16T15:01:12;14.40;;;9.23;;
10471;SDS011;5283;48.876;8.962;2022-12-16T15:04:26;9.63;;;8.03;;
10471;SDS011;5283;48.876;8.962;2022-12-16T15:07:11;11.07;;;8.07;;
10471;SDS011;5283;48.876;8.962;2022-12-16T15:09:58;12.97;;;9.17;;
10471;SDS011;5283;48.876;8.962;2022-12-16T15:12:45;11.73;;;8.93;;
10471;SDS011;5283;48.876;8.962;2022-12-16T15:15:32;14.53;;;9.40;;
10471;SDS011;5283;48.876;8.962;2022-12-16T15:18:21;13.50;;;8.40;;
10471;SDS011;5283;48.876;8.962;2022-12-16T15:21:12;14.83;;;9.60;;
10471;SDS011;5283;48.876;8.962;2022-12-16T15:23:57;12.27;;;8.67;;
10471;SDS011;5283;48.876;8.962;2022-12-16T15:26:43;13.90;;;9.33;;
10471;SDS011;5283;48.876;8.962;2022-12-16T15:35:23;12.33;;;9.50;;
10471;SDS011;5283;48.876;8.962;2022-12-16T15:41:01;14.20;;;10.33;;
10471;SDS011;5283;48.876;8.962;2022-12-16T15:43:48;17.37;;;10.67;;
10471;SDS011;5283;48.876;8.962;2022-12-16T15:46:35;21.00;;;13.20;;
10471;SDS011;5283;48.876;8.962;2022-12-16T15:49:21;20.13;;;13.50;;
10471;SDS011;5283;48.876;8.962;2022-12-16T16:01:08;16.57;;;10.53;;
10471;SDS011;5283;48.876;8.962;2022-12-16T16:03:55;15.63;;;10.23;;
10471;SDS011;5283;48.876;8.962;2022-12-16T16:06:47;16.07;;;11.03;;
10471;SDS011;5283;48.876;8.962;2022-12-16T16:09:34;20.67;;;10.73;;
10471;SDS011;5283;48.876;8.962;2022-12-16T16:12:22;14.80;;;10.40;;
10471;SDS011;5283;48.876;8.962;2022-12-16T16:15:22;15.40;;;10.13;;
10471;SDS011;5283;48.876;8.962;2022-12-16T16:18:08;16.80;;;10.50;;
10471;SDS011;5283;48.876;8.962;2022-12-16T16:20:54;17.53;;;11.60;;
10471;SDS011;5283;48.876;8.962;2022-12-16T16:23:53;14.83;;;10.57;;
10471;SDS011;5283;48.876;8.962;2022-12-16T16:26:38;16.00;;;10.93;;
10471;SDS011;5283;48.876;8.962;2022-12-16T16:29:25;16.97;;;11.67;;
10471;SDS011;5283;48.876;8.962;2022-12-16T16:32:10;15.50;;;11.17;;
10471;SDS011;5283;48.876;8.962;2022-12-16T16:34:56;15.43;;;10.13;;
10471;SDS011;5283;48.876;8.962;2022-12-16T16:37:41;16.87;;;9.97;;
10471;SDS011;5283;48.876;8.962;2022-12-16T16:43:16;16.80;;;10.73;;
10471;SDS011;5283;48.876;8.962;2022-12-16T16:46:04;19.03;;;11.20;;
10471;SDS011;5283;48.876;8.962;2022-12-16T16:49:00;18.53;;;11.53;;
10471;SDS011;5283;48.876;8.962;2022-12-16T16:51:46;18.50;;;9.93;;
10471;SDS011;5283;48.876;8.962;2022-12-16T16:54:31;15.27;;;10.53;;
10471;SDS011;5283;48.876;8.962;2022-12-16T16:57:17;17.70;;;11.67;;
10471;SDS011;5283;48.876;8.962;2022-12-16T17:00:02;17.77;;;10.87;;
10471;SDS011;5283;48.876;8.962;2022-12-16T17:02:48;15.13;;;10.80;;
10471;SDS011;5283;48.876;8.962;2022-12-16T17:05:33;17.20;;;11.57;;
10471;SDS011;5283;48.876;8.962;2022-12-16T17:08:19;17.93;;;11.17;;
10471;SDS011;5283;48.876;8.962;2022-12-16T17:11:08;17.30;;;11.47;;
10471;SDS011;5283;48.876;8.962;2022-12-16T17:14:01;17.67;;;11.17;;
10471;SDS011;5283;48.876;8.962;2022-12-16T17:16:47;15.80;;;10.77;;
10471;SDS011;5283;48.876;8.962;2022-12-16T17:19:32;15.93;;;11.27;;
10471;SDS011;5283;48.876;8.962;2022-12-16T17:22:17;16.43;;;10.27;;
10471;SDS011;5283;48.876;8.962;2022-12-16T17:25:03;16.13;;;11.00;;
10471;SDS011;5283;48.876;8.962;2022-12-16T17:27:48;15.13;;;11.13;;
10471;SDS011;5283;48.876;8.962;2022-12-16T17:30:34;18.47;;;11.90;;
10471;SDS011;5283;48.876;8.962;2022-12-16T17:33:19;15.27;;;10.27;;
10471;SDS011;5283;48.876;8.962;2022-12-16T17:36:05;17.83;;;11.30;;
10471;SDS011;5283;48.876;8.962;2022-12-16T17:38:56;17.87;;;12.30;;
10471;SDS011;5283;48.876;8.962;2022-12-16T17:41:41;18.13;;;12.17;;
10471;SDS011;5283;48.876;8.962;2022-12-16T17:44:27;17.67;;;11.43;;
10471;SDS011;5283;48.876;8.962;2022-12-16T17:47:12;20.73;;;11.97;;
10471;SDS011;5283;48.876;8.962;2022-12-16T17:49:58;17.00;;;11.40;;
10471;SDS011;5283;48.876;8.962;2022-12-16T17:52:44;17.73;;;11.83;;
10471;SDS011;5283;48.876;8.962;2022-12-16T17:55:29;15.93;;;11.73;;
10471;SDS011;5283;48.876;8.962;2022-12-16T17:58:15;20.93;;;12.73;;
10471;SDS011;5283;48.876;8.962;2022-12-16T18:01:01;16.83;;;11.63;;
10471;SDS011;5283;48.876;8.962;2022-12-16T18:03:47;17.30;;;11.73;;
10471;SDS011;5283;48.876;8.962;2022-12-16T18:06:32;17.97;;;11.93;;
10471;SDS011;5283;48.876;8.962;2022-12-16T18:09:17;18.70;;;12.50;;
10471;SDS011;5283;48.876;8.962;2022-12-16T18:12:03;17.37;;;12.07;;
10471;SDS011;5283;48.876;8.962;2022-12-16T18:14:48;17.90;;;11.50;;
10471;SDS011;5283;48.876;8.962;2022-12-16T18:17:34;19.77;;;11.97;;
10471;SDS011;5283;48.876;8.962;2022-12-16T18:20:19;17.77;;;11.73;;
10471;SDS011;5283;48.876;8.962;2022-12-16T18:23:05;17.10;;;11.80;;